createdAt,value
2022-09-05T00:05:00.884Z,0.00
2022-09-05T00:24:21.445Z,0.00
2022-09-05T00:35:07.219Z,0.00
2022-09-05T00:50:07.804Z,0.00
2022-09-05T01:05:08.896Z,0.00
2022-09-05T01:20:19.803Z,0.00
2022-09-05T01:35:16.149Z,0.00
2022-09-05T01:50:16.346Z,0.00
2022-09-05T02:05:16.839Z,0.00
2022-09-05T02:20:24.319Z,0.00
2022-09-05T02:35:24.752Z,0.00
2022-09-05T02:53:15.914Z,0.00
2022-09-05T03:05:31.760Z,0.00
2022-09-05T03:20:33.615Z,0.00
2022-09-05T03:35:34.203Z,0.00
2022-09-05T03:57:08.884Z,0.00
2022-09-05T04:08:16.194Z,20.00
2022-09-05T04:20:46.785Z,168.00
2022-09-05T04:35:46.882Z,588.00
2022-09-05T04:50:48.211Z,1264.00
2022-09-05T05:06:14.661Z,2208.00
2022-09-05T05:20:57.360Z,2380.00
2022-09-05T05:35:59.683Z,3132.00
2022-09-05T05:51:01.048Z,4092.00
2022-09-05T06:06:02.374Z,4012.00
2022-09-05T06:22:10.528Z,5204.00
2022-09-05T06:36:08.880Z,6552.00
2022-09-05T06:51:10.181Z,6700.00
2022-09-05T07:06:19.824Z,7368.00
2022-09-05T07:21:26.278Z,7308.00
2022-09-05T07:36:20.990Z,7660.00
2022-09-05T07:56:53.052Z,9140.00
2022-09-05T08:07:45.506Z,10200.00
2022-09-05T08:21:37.892Z,8560.00
2022-09-05T08:36:39.909Z,13876.00
2022-09-05T08:51:41.303Z,15008.00
2022-09-05T09:06:47.284Z,12952.00
2022-09-05T09:21:55.051Z,16800.00
2022-09-05T09:36:58.905Z,27392.00
2022-09-05T09:52:00.776Z,24256.00
2022-09-05T10:10:45.059Z,33376.00
2022-09-05T10:22:38.615Z,47072.00
2022-09-05T10:37:14.964Z,51744.00
2022-09-05T10:52:19.245Z,58912.00
2022-09-05T11:07:29.464Z,62176.00
2022-09-05T11:22:28.026Z,74752.00
2022-09-05T11:40:04.815Z,65216.00
2022-09-05T11:52:35.605Z,72640.00
2022-09-05T12:07:37.789Z,63104.00
2022-09-05T12:22:38.592Z,70144.00
2022-09-05T12:40:36.862Z,52224.00
2022-09-05T12:52:47.413Z,77984.00
2022-09-05T13:07:48.800Z,78336.00
2022-09-05T13:22:51.352Z,86624.00
2022-09-05T13:38:03.936Z,80992.00
2022-09-05T13:52:59.112Z,86240.00
2022-09-05T14:07:59.207Z,76032.00
2022-09-05T14:23:00.555Z,74816.00
2022-09-05T14:38:09.547Z,71488.00
2022-09-05T15:08:35.265Z,56096.00
2022-09-05T15:23:24.556Z,11096.00
2022-09-05T15:38:28.044Z,8328.00
2022-09-05T15:53:29.447Z,9512.00
2022-09-05T16:10:38.780Z,5948.00
2022-09-05T16:23:41.744Z,4200.00
2022-09-05T16:38:49.211Z,3600.00
2022-09-05T16:53:59.144Z,2664.00
2022-09-05T17:08:56.780Z,1712.00
2022-09-05T17:29:20.234Z,760.00
2022-09-05T17:39:06.699Z,344.00
2022-09-05T17:54:08.557Z,96.00
2022-09-05T18:09:09.938Z,8.00
2022-09-05T18:39:17.665Z,0.00
2022-09-05T18:54:22.006Z,0.00
2022-09-05T19:09:27.341Z,0.00
2022-09-05T19:24:36.575Z,0.00
2022-09-05T19:42:50.907Z,0.00
2022-09-05T19:54:41.438Z,0.00
2022-09-05T20:09:43.555Z,4.00
2022-09-05T20:24:45.742Z,0.00
2022-09-05T20:43:14.515Z,0.00
2022-09-05T20:54:55.068Z,0.00
2022-09-05T21:09:56.021Z,0.00
2022-09-05T21:24:56.889Z,0.00
2022-09-05T21:39:59.293Z,0.00
2022-09-05T21:59:14.016Z,0.00
2022-09-05T22:10:07.355Z,0.00
2022-09-05T22:25:08.426Z,0.00
2022-09-05T22:40:10.058Z,0.00
2022-09-05T22:55:11.596Z,0.00
2022-09-05T23:10:13.620Z,0.00
2022-09-05T23:25:15.652Z,0.00
2022-09-05T23:40:18.449Z,0.00
2022-09-05T23:55:20.501Z,0.00
